createdAt,value
2023-04-18T00:00:10.790Z,10.10
2023-04-18T00:02:40.154Z,10.10
2023-04-18T00:05:07.817Z,10.00
2023-04-18T00:07:35.601Z,10.10
2023-04-18T00:10:03.810Z,10.10
2023-04-18T00:12:34.344Z,10.10
2023-04-18T00:15:02.737Z,10.10
2023-04-18T00:18:19.513Z,10.10
2023-04-18T00:20:46.390Z,10.20
2023-04-18T00:23:14.033Z,10.20
2023-04-18T00:25:43.482Z,10.30
2023-04-18T00:28:10.407Z,10.20
2023-04-18T00:30:37.286Z,10.10
2023-04-18T00:33:04.565Z,10.10
2023-04-18T00:35:33.514Z,10.10
2023-04-18T00:38:00.251Z,10.00
2023-04-18T00:40:27.034Z,10.00
2023-04-18T00:42:53.810Z,9.90
2023-04-18T00:45:20.681Z,10.00
2023-04-18T00:47:47.535Z,9.90
2023-04-18T00:50:16.567Z,9.90
2023-04-18T00:52:44.083Z,9.90
2023-04-18T00:55:10.954Z,10.00
2023-04-18T00:57:37.699Z,10.00
2023-04-18T01:00:10.598Z,10.00
2023-04-18T01:02:37.897Z,10.00
2023-04-18T01:05:08.030Z,10.00
2023-04-18T01:07:37.326Z,10.00
2023-04-18T01:10:04.478Z,10.00
2023-04-18T01:12:33.521Z,10.00
2023-04-18T01:15:03.922Z,9.90
2023-04-18T01:17:35.542Z,9.90
2023-04-18T01:23:43.366Z,9.80
2023-04-18T01:26:12.299Z,9.80
2023-04-18T01:28:39.063Z,9.80
2023-04-18T01:31:06.061Z,9.90
2023-04-18T01:33:35.384Z,9.90
2023-04-18T01:36:04.499Z,9.90
2023-04-18T01:38:31.273Z,9.90
2023-04-18T01:40:57.998Z,9.90
2023-04-18T01:43:24.750Z,9.90
2023-04-18T01:45:53.797Z,9.90
2023-04-18T01:48:23.047Z,9.90
2023-04-18T01:50:49.804Z,9.90
2023-04-18T01:53:20.998Z,9.90
2023-04-18T01:55:52.337Z,9.90
2023-04-18T01:58:23.163Z,9.90
2023-04-18T02:00:53.843Z,9.90
2023-04-18T02:03:21.079Z,9.90
2023-04-18T02:05:50.343Z,9.90
2023-04-18T02:08:17.206Z,9.90
2023-04-18T02:10:44.150Z,9.80
2023-04-18T02:13:11.099Z,9.80
2023-04-18T02:15:37.954Z,9.80
2023-04-18T02:18:04.768Z,9.80
2023-04-18T02:20:36.706Z,9.80
2023-04-18T02:23:03.921Z,9.80
2023-04-18T02:25:30.879Z,9.80
2023-04-18T02:27:59.910Z,9.80
2023-04-18T02:30:26.815Z,9.90
2023-04-18T02:32:54.486Z,9.80
2023-04-18T02:35:23.420Z,9.90
2023-04-18T02:37:50.451Z,9.90
2023-04-18T02:40:19.542Z,9.90
2023-04-18T02:42:46.854Z,9.90
2023-04-18T02:45:16.092Z,10.00
2023-04-18T02:47:51.776Z,10.00
2023-04-18T02:50:21.062Z,10.10
2023-04-18T02:52:47.877Z,10.10
2023-04-18T02:55:17.183Z,10.00
2023-04-18T02:57:46.378Z,10.10
2023-04-18T03:00:16.374Z,10.10
2023-04-18T03:02:43.351Z,10.00
2023-04-18T03:05:10.278Z,10.00
2023-04-18T03:07:39.226Z,10.00
2023-04-18T03:10:06.370Z,10.00
2023-04-18T03:12:33.178Z,9.90
2023-04-18T03:14:59.916Z,9.90
2023-04-18T03:17:26.741Z,9.90
2023-04-18T03:19:53.540Z,9.90
2023-04-18T03:22:20.571Z,9.90
2023-04-18T03:24:47.310Z,9.90
2023-04-18T03:27:16.518Z,9.90
2023-04-18T03:29:43.255Z,9.90
2023-04-18T03:32:10.022Z,10.00
2023-04-18T03:34:36.917Z,9.90
2023-04-18T03:37:03.674Z,9.90
2023-04-18T03:39:32.646Z,9.90
2023-04-18T03:41:59.400Z,9.90
2023-04-18T03:44:26.197Z,9.90
2023-04-18T03:46:59.737Z,9.90
2023-04-18T03:49:26.479Z,9.90
2023-04-18T03:51:53.292Z,9.90
2023-04-18T03:54:20.082Z,9.90
2023-04-18T03:56:46.865Z,10.00
2023-04-18T03:59:13.726Z,10.00
2023-04-18T04:01:40.519Z,10.00
2023-04-18T04:04:09.208Z,10.10
2023-04-18T04:06:36.489Z,10.10
2023-04-18T04:09:05.516Z,10.10
2023-04-18T04:11:32.276Z,10.10
2023-04-18T04:13:59.032Z,10.00
2023-04-18T04:16:28.522Z,10.00
2023-04-18T04:18:55.333Z,10.10
2023-04-18T04:21:22.121Z,10.10
2023-04-18T04:23:49.012Z,10.10
2023-04-18T04:26:15.983Z,10.10
2023-04-18T04:28:46.429Z,10.10
2023-04-18T04:31:13.303Z,10.20
2023-04-18T04:33:41.125Z,10.20
2023-04-18T04:36:08.991Z,10.20
2023-04-18T04:38:38.505Z,10.20
2023-04-18T04:41:07.904Z,10.10
2023-04-18T04:43:34.938Z,10.10
2023-04-18T04:46:04.517Z,10.10
2023-04-18T04:48:31.375Z,10.00
2023-04-18T04:51:01.038Z,10.00
2023-04-18T04:53:32.118Z,10.00
2023-04-18T04:56:00.961Z,10.00
2023-04-18T04:58:27.924Z,10.00
2023-04-18T05:00:57.290Z,10.10
2023-04-18T05:03:24.266Z,10.10
2023-04-18T05:05:55.830Z,10.10
2023-04-18T05:08:22.608Z,10.20
2023-04-18T05:10:50.137Z,10.20
2023-04-18T05:13:16.961Z,10.30
2023-04-18T05:15:48.291Z,10.30
2023-04-18T05:18:15.102Z,10.30
2023-04-18T05:20:44.078Z,10.30
2023-04-18T05:23:13.148Z,10.30
2023-04-18T05:25:39.941Z,10.30
2023-04-18T05:28:08.360Z,10.30
2023-04-18T05:30:35.147Z,10.30
2023-04-18T05:33:01.963Z,10.40
2023-04-18T05:35:28.795Z,10.40
2023-04-18T05:37:55.560Z,10.40
2023-04-18T05:40:22.340Z,10.40
2023-04-18T05:42:49.175Z,10.50
2023-04-18T05:45:16.130Z,10.50
2023-04-18T05:47:43.032Z,10.50
2023-04-18T05:50:12.360Z,10.50
2023-04-18T05:52:39.268Z,10.60
2023-04-18T05:55:06.600Z,10.60
2023-04-18T05:57:33.472Z,10.60
2023-04-18T06:00:02.531Z,10.60
2023-04-18T06:02:29.462Z,10.70
2023-04-18T06:04:56.831Z,10.60
2023-04-18T06:07:25.525Z,10.60
2023-04-18T06:09:54.023Z,10.70
2023-04-18T06:12:25.427Z,10.60
2023-04-18T06:14:52.212Z,10.70
2023-04-18T06:17:19.255Z,10.70
2023-04-18T06:19:46.006Z,10.80
2023-04-18T06:22:12.800Z,10.80
2023-04-18T06:24:39.579Z,10.80
2023-04-18T06:27:07.386Z,10.80
2023-04-18T06:29:38.691Z,10.80
2023-04-18T06:32:10.493Z,10.80
2023-04-18T06:34:40.668Z,10.80
2023-04-18T06:37:09.993Z,10.80
2023-04-18T06:39:36.747Z,10.80
2023-04-18T06:42:05.878Z,10.80
2023-04-18T06:44:32.712Z,10.80
2023-04-18T06:47:02.136Z,10.80
2023-04-18T06:49:28.927Z,10.90
2023-04-18T06:51:57.888Z,10.90
2023-04-18T06:54:24.704Z,11.00
2023-04-18T06:56:52.228Z,11.00
2023-04-18T06:59:21.428Z,11.00
2023-04-18T07:01:50.800Z,11.00
2023-04-18T07:04:20.043Z,11.10
2023-04-18T07:06:47.089Z,11.10
2023-04-18T07:09:16.140Z,11.10
2023-04-18T07:11:43.010Z,11.20
2023-04-18T07:14:14.609Z,11.20
2023-04-18T07:16:42.012Z,11.20
2023-04-18T07:19:08.782Z,11.30
2023-04-18T07:21:35.605Z,11.30
2023-04-18T07:24:02.368Z,11.30
2023-04-18T07:26:31.656Z,11.40
2023-04-18T07:29:00.610Z,11.40
2023-04-18T07:31:28.654Z,11.50
2023-04-18T07:33:55.743Z,11.50
2023-04-18T07:36:27.918Z,11.40
2023-04-18T07:38:54.705Z,11.40
2023-04-18T07:41:24.018Z,11.50
2023-04-18T07:43:53.297Z,11.60
2023-04-18T07:46:20.129Z,11.60
2023-04-18T07:48:49.047Z,11.70
2023-04-18T07:51:17.965Z,11.70
2023-04-18T07:53:44.816Z,11.70
2023-04-18T07:56:12.748Z,11.80
2023-04-18T07:58:39.540Z,11.80
2023-04-18T08:01:13.454Z,11.90
2023-04-18T08:03:40.463Z,12.00
2023-04-18T08:06:10.009Z,12.00
2023-04-18T08:08:36.812Z,12.10
2023-04-18T08:11:05.796Z,12.10
2023-04-18T08:13:32.642Z,12.10
2023-04-18T08:16:00.033Z,12.30
2023-04-18T08:18:26.986Z,12.30
2023-04-18T08:20:53.854Z,12.40
2023-04-18T08:23:22.921Z,12.50
2023-04-18T08:25:56.825Z,12.50
2023-04-18T08:28:23.627Z,12.60
2023-04-18T08:30:51.360Z,12.60
2023-04-18T08:33:18.833Z,12.60
2023-04-18T08:35:46.012Z,12.70
2023-04-18T08:38:15.073Z,12.80
2023-04-18T08:40:42.987Z,12.80
2023-04-18T08:43:12.586Z,13.00
2023-04-18T08:45:40.214Z,13.10
2023-04-18T08:48:09.444Z,13.20
2023-04-18T08:50:36.249Z,13.30
2023-04-18T08:53:03.217Z,13.40
2023-04-18T08:55:33.731Z,13.40
2023-04-18T08:58:01.392Z,13.50
2023-04-18T09:00:29.318Z,13.50
2023-04-18T09:02:59.364Z,13.60
2023-04-18T09:05:33.701Z,13.60
2023-04-18T09:08:08.586Z,13.70
2023-04-18T09:10:38.356Z,13.80
2023-04-18T09:13:05.598Z,13.80
2023-04-18T09:15:32.486Z,13.90
2023-04-18T09:18:03.496Z,14.00
2023-04-18T09:20:43.977Z,14.10
2023-04-18T09:23:14.408Z,14.20
2023-04-18T09:25:48.507Z,14.30
2023-04-18T09:28:25.280Z,14.40
2023-04-18T09:30:52.746Z,14.40
2023-04-18T09:33:28.334Z,14.50
2023-04-18T09:35:56.527Z,14.50
2023-04-18T09:38:41.893Z,14.60
2023-04-18T09:41:12.114Z,14.70
2023-04-18T09:43:41.542Z,14.70
2023-04-18T09:46:08.825Z,14.70
2023-04-18T09:48:35.852Z,14.80
2023-04-18T09:51:17.486Z,14.90
2023-04-18T09:53:45.072Z,14.90
2023-04-18T09:56:28.125Z,14.90
2023-04-18T09:59:10.250Z,15.00
2023-04-18T10:01:40.091Z,15.00
2023-04-18T10:04:13.270Z,15.10
2023-04-18T10:06:42.152Z,15.20
2023-04-18T10:09:12.060Z,15.30
2023-04-18T10:11:38.982Z,15.40
2023-04-18T10:14:08.015Z,15.40
2023-04-18T10:16:36.298Z,15.60
2023-04-18T10:19:22.841Z,15.70
2023-04-18T10:21:57.046Z,15.80
2023-04-18T10:24:49.688Z,15.90
2023-04-18T10:27:17.755Z,16.00
2023-04-18T10:29:51.429Z,16.10
2023-04-18T10:32:26.934Z,16.20
2023-04-18T10:34:56.256Z,16.20
2023-04-18T10:37:22.974Z,16.30
2023-04-18T10:40:00.371Z,16.30
2023-04-18T10:42:57.607Z,16.40
2023-04-18T10:45:24.989Z,16.30
2023-04-18T10:47:55.580Z,16.30
2023-04-18T10:50:23.163Z,16.50
2023-04-18T10:52:52.246Z,16.70
2023-04-18T10:55:28.941Z,16.90
2023-04-18T10:57:56.526Z,17.10
2023-04-18T11:00:23.535Z,17.30
2023-04-18T11:02:52.196Z,17.40
2023-04-18T11:05:20.414Z,17.50
2023-04-18T11:07:49.298Z,17.70
2023-04-18T11:10:36.516Z,17.80
2023-04-18T11:13:05.522Z,17.70
2023-04-18T11:15:32.282Z,17.70
2023-04-18T11:18:01.110Z,17.70
2023-04-18T11:20:31.034Z,17.60
2023-04-18T11:22:59.040Z,17.80
2023-04-18T11:25:31.988Z,18.00
2023-04-18T11:27:59.768Z,18.10
2023-04-18T11:30:26.664Z,18.10
2023-04-18T11:32:54.300Z,18.30
2023-04-18T11:35:24.225Z,18.20
2023-04-18T11:37:51.342Z,17.90
2023-04-18T11:40:18.345Z,17.60
2023-04-18T11:42:45.290Z,17.40
2023-04-18T11:45:15.416Z,17.10
2023-04-18T11:47:43.223Z,16.90
2023-04-18T11:50:11.536Z,16.80
2023-04-18T11:52:39.899Z,16.60
2023-04-18T11:55:15.052Z,16.40
2023-04-18T11:57:42.075Z,16.20
2023-04-18T12:00:12.718Z,16.10
2023-04-18T12:02:43.709Z,16.00
2023-04-18T12:05:12.003Z,16.00
2023-04-18T12:07:43.002Z,15.90
2023-04-18T12:10:19.789Z,15.90
2023-04-18T12:12:53.997Z,15.90
2023-04-18T12:15:25.260Z,15.90
2023-04-18T12:17:52.478Z,15.90
2023-04-18T12:20:20.084Z,16.00
2023-04-18T12:22:49.577Z,16.00
2023-04-18T12:25:27.910Z,16.00
2023-04-18T12:28:03.641Z,16.00
2023-04-18T12:30:37.346Z,16.00
2023-04-18T12:33:04.887Z,16.00
2023-04-18T12:35:31.994Z,16.20
2023-04-18T12:38:00.004Z,16.20
2023-04-18T12:40:27.065Z,16.30
2023-04-18T12:42:56.339Z,16.30
2023-04-18T12:45:23.365Z,16.30
2023-04-18T12:47:52.974Z,16.10
2023-04-18T12:50:27.418Z,16.10
2023-04-18T12:52:54.863Z,16.10
2023-04-18T12:55:26.455Z,16.10
2023-04-18T12:57:58.165Z,16.10
2023-04-18T13:00:27.632Z,16.20
2023-04-18T13:02:54.650Z,16.20
2023-04-18T13:05:22.954Z,16.30
2023-04-18T13:07:49.892Z,16.50
2023-04-18T13:10:22.918Z,16.60
2023-04-18T13:12:50.090Z,16.70
2023-04-18T13:15:17.503Z,16.70
2023-04-18T13:17:44.450Z,16.70
2023-04-18T13:20:15.091Z,16.80
2023-04-18T13:22:44.953Z,16.80
2023-04-18T13:25:11.746Z,16.70
2023-04-18T13:27:41.820Z,16.70
2023-04-18T13:30:10.664Z,16.70
2023-04-18T13:32:40.462Z,16.60
2023-04-18T13:35:08.926Z,16.50
2023-04-18T13:37:36.139Z,16.40
2023-04-18T13:40:06.978Z,16.30
2023-04-18T13:42:34.190Z,16.30
2023-04-18T13:45:00.926Z,16.10
2023-04-18T13:47:27.965Z,16.20
2023-04-18T13:49:54.781Z,16.20
2023-04-18T13:52:23.645Z,16.20
2023-04-18T13:54:55.162Z,16.20
2023-04-18T13:57:23.126Z,16.20
2023-04-18T13:59:49.986Z,16.10
2023-04-18T14:02:18.996Z,16.10
2023-04-18T14:04:46.563Z,16.10
2023-04-18T14:07:15.574Z,16.00
2023-04-18T14:09:42.336Z,15.80
2023-04-18T14:12:14.022Z,15.80
2023-04-18T14:14:40.798Z,15.70
2023-04-18T14:17:08.366Z,15.70
2023-04-18T14:19:35.290Z,15.70
2023-04-18T14:22:04.262Z,15.70
2023-04-18T14:24:31.007Z,15.60
2023-04-18T14:26:58.380Z,15.70
2023-04-18T14:29:25.312Z,15.70
2023-04-18T14:31:52.061Z,15.70
2023-04-18T14:34:18.806Z,15.60
2023-04-18T14:36:45.680Z,15.70
2023-04-18T14:39:13.247Z,15.80
2023-04-18T14:41:45.933Z,15.80
2023-04-18T14:44:15.418Z,15.90
2023-04-18T14:46:42.706Z,16.00
2023-04-18T14:49:09.599Z,15.90
2023-04-18T14:51:36.348Z,16.00
2023-04-18T14:54:03.135Z,16.10
2023-04-18T14:56:29.846Z,16.10
2023-04-18T14:58:56.625Z,16.20
2023-04-18T15:01:23.385Z,16.40
2023-04-18T15:03:53.210Z,16.20
2023-04-18T15:06:20.150Z,16.20
2023-04-18T15:08:47.232Z,16.10
2023-04-18T15:11:14.046Z,16.10
2023-04-18T15:13:42.974Z,16.00
2023-04-18T15:16:09.895Z,16.00
2023-04-18T15:18:39.237Z,16.10
2023-04-18T15:21:06.194Z,16.10
2023-04-18T15:23:34.162Z,16.10
2023-04-18T15:26:01.034Z,16.10
2023-04-18T15:28:27.875Z,16.20
2023-04-18T15:30:54.761Z,16.20
2023-04-18T15:33:21.881Z,16.10
2023-04-18T15:35:50.868Z,16.10
2023-04-18T15:38:17.594Z,16.10
2023-04-18T15:40:47.053Z,16.00
2023-04-18T15:43:17.355Z,16.00
2023-04-18T15:45:44.677Z,16.00
2023-04-18T15:48:13.116Z,15.90
2023-04-18T15:50:40.430Z,15.90
2023-04-18T15:53:07.235Z,15.90
2023-04-18T15:55:38.679Z,15.90
2023-04-18T15:58:07.672Z,15.80
2023-04-18T16:00:39.963Z,15.70
2023-04-18T16:03:11.523Z,15.70
2023-04-18T16:05:38.412Z,15.70
2023-04-18T16:08:05.579Z,15.80
2023-04-18T16:10:32.376Z,15.80
2023-04-18T16:12:59.545Z,15.80
2023-04-18T16:15:26.389Z,15.80
2023-04-18T16:17:55.649Z,15.70
2023-04-18T16:20:22.474Z,15.70
2023-04-18T16:22:51.417Z,15.70
2023-04-18T16:25:18.972Z,15.70
2023-04-18T16:27:46.103Z,15.70
2023-04-18T16:30:13.284Z,15.70
2023-04-18T16:32:40.161Z,15.70
2023-04-18T16:35:10.224Z,15.70
2023-04-18T16:37:42.184Z,15.70
2023-04-18T16:40:10.126Z,15.70
2023-04-18T16:42:37.068Z,15.70
2023-04-18T16:45:04.169Z,15.80
2023-04-18T16:47:31.040Z,15.80
2023-04-18T16:49:57.864Z,15.70
2023-04-18T16:52:24.656Z,15.70
2023-04-18T16:54:52.610Z,15.70
2023-04-18T16:57:22.024Z,15.70
2023-04-18T16:59:51.336Z,15.60
2023-04-18T17:02:18.184Z,15.60
2023-04-18T17:04:45.084Z,15.60
2023-04-18T17:07:11.921Z,15.50
2023-04-18T17:09:41.420Z,15.50
2023-04-18T17:12:12.860Z,15.50
2023-04-18T17:14:39.647Z,15.50
2023-04-18T17:17:06.391Z,15.50
2023-04-18T17:19:33.175Z,15.50
2023-04-18T17:22:00.312Z,15.50
2023-04-18T17:24:29.656Z,15.40
2023-04-18T17:26:58.662Z,15.40
2023-04-18T17:29:28.079Z,15.40
2023-04-18T17:31:54.840Z,15.40
2023-04-18T17:34:23.831Z,15.40
2023-04-18T17:36:50.645Z,15.40
2023-04-18T17:39:19.556Z,15.40
2023-04-18T17:41:48.438Z,15.30
2023-04-18T17:44:15.244Z,15.30
2023-04-18T17:46:41.994Z,15.30
2023-04-18T17:49:08.845Z,15.30
2023-04-18T17:51:35.612Z,15.30
2023-04-18T17:54:02.413Z,15.30
2023-04-18T17:56:30.547Z,15.30
2023-04-18T17:58:57.397Z,15.20
2023-04-18T18:01:28.832Z,15.20
2023-04-18T18:03:58.436Z,15.20
2023-04-18T18:06:27.889Z,15.20
2023-04-18T18:08:57.164Z,15.20
2023-04-18T18:11:23.992Z,15.20
2023-04-18T18:13:54.559Z,15.10
2023-04-18T18:16:23.063Z,15.10
2023-04-18T18:18:50.963Z,15.00
2023-04-18T18:21:18.220Z,15.00
2023-04-18T18:23:44.951Z,15.00
2023-04-18T18:26:12.296Z,14.90
2023-04-18T18:28:39.074Z,14.90
2023-04-18T18:31:05.877Z,14.80
2023-04-18T18:33:32.673Z,14.80
2023-04-18T18:36:01.984Z,14.80
2023-04-18T18:38:28.754Z,14.80
2023-04-18T18:40:57.990Z,14.80
2023-04-18T18:43:26.322Z,14.80
2023-04-18T18:45:55.711Z,14.80
2023-04-18T18:48:24.963Z,14.80
2023-04-18T18:50:51.903Z,14.80
2023-04-18T18:53:18.730Z,14.70
2023-04-18T18:55:47.727Z,14.70
2023-04-18T18:58:16.523Z,14.70
2023-04-18T19:00:43.331Z,14.70
2023-04-18T19:03:12.800Z,14.60
2023-04-18T19:05:39.654Z,14.60
2023-04-18T19:08:09.404Z,14.60
2023-04-18T19:10:36.218Z,14.70
2023-04-18T19:13:05.644Z,14.70
2023-04-18T19:15:32.384Z,14.70
2023-04-18T19:17:59.125Z,14.70
2023-04-18T19:20:29.230Z,14.80
2023-04-18T19:22:56.087Z,14.80
2023-04-18T19:25:22.992Z,14.80
2023-04-18T19:27:52.297Z,14.70
2023-04-18T19:30:19.119Z,14.70
2023-04-18T19:32:46.807Z,14.70
2023-04-18T19:35:13.798Z,14.70
2023-04-18T19:37:40.626Z,14.60
2023-04-18T19:40:10.588Z,14.60
2023-04-18T19:42:39.394Z,14.50
2023-04-18T19:45:06.870Z,14.50
2023-04-18T19:47:34.076Z,14.50
2023-04-18T19:50:01.309Z,14.40
2023-04-18T19:52:30.382Z,14.40
2023-04-18T19:54:57.198Z,14.40
2023-04-18T19:57:25.693Z,14.40
2023-04-18T19:59:52.445Z,14.40
2023-04-18T20:02:21.753Z,14.40
2023-04-18T20:04:48.651Z,14.40
2023-04-18T20:07:15.850Z,14.50
2023-04-18T20:09:42.605Z,14.40
2023-04-18T20:12:09.417Z,14.30
2023-04-18T20:14:38.700Z,14.20
2023-04-18T20:17:08.054Z,14.10
2023-04-18T20:19:34.836Z,14.10
2023-04-18T20:22:04.132Z,14.10
2023-04-18T20:24:34.691Z,14.10
2023-04-18T20:27:04.172Z,14.10
2023-04-18T20:29:31.339Z,13.90
2023-04-18T20:31:58.162Z,13.90
2023-04-18T20:34:24.949Z,13.90
2023-04-18T20:36:54.113Z,13.80
2023-04-18T20:39:23.060Z,13.80
2023-04-18T20:41:53.885Z,13.80
2023-04-18T20:44:24.945Z,13.80
2023-04-18T20:46:53.816Z,13.80
2023-04-18T20:49:22.856Z,13.80
2023-04-18T20:51:51.918Z,13.80
2023-04-18T20:54:18.870Z,13.60
2023-04-18T20:56:45.864Z,13.50
2023-04-18T20:59:12.657Z,13.60
2023-04-18T21:01:42.071Z,13.60
2023-04-18T21:04:08.980Z,13.60
2023-04-18T21:06:38.425Z,13.60
2023-04-18T21:09:07.589Z,13.60
2023-04-18T21:11:39.151Z,13.60
2023-04-18T21:14:06.813Z,13.50
2023-04-18T21:16:33.909Z,13.50
2023-04-18T21:19:00.702Z,13.40
2023-04-18T21:21:29.968Z,13.40
2023-04-18T21:23:56.725Z,13.30
2023-04-18T21:26:23.506Z,13.20
2023-04-18T21:29:02.554Z,13.10
2023-04-18T21:31:35.715Z,13.10
2023-04-18T21:34:05.508Z,13.10
2023-04-18T21:36:32.419Z,13.10
2023-04-18T21:39:02.284Z,13.00
2023-04-18T21:41:29.161Z,13.00
2023-04-18T21:43:58.354Z,12.90
2023-04-18T21:46:25.345Z,12.80
2023-04-18T21:48:52.125Z,12.80
2023-04-18T21:51:18.938Z,12.80
2023-04-18T21:53:45.711Z,12.80
2023-04-18T21:56:12.493Z,12.70
2023-04-18T21:58:39.534Z,12.80
2023-04-18T22:01:06.350Z,12.70
2023-04-18T22:03:35.935Z,12.70
2023-04-18T22:06:05.549Z,12.60
2023-04-18T22:08:32.583Z,12.60
2023-04-18T22:11:04.899Z,12.60
2023-04-18T22:13:33.221Z,12.60
2023-04-18T22:16:03.560Z,12.70
2023-04-18T22:18:33.683Z,12.60
2023-04-18T22:21:02.372Z,12.60
2023-04-18T22:23:31.838Z,12.60
2023-04-18T22:26:00.793Z,12.60
2023-04-18T22:28:30.307Z,12.60
2023-04-18T22:30:57.199Z,12.60
2023-04-18T22:33:28.674Z,12.50
2023-04-18T22:35:55.765Z,12.50
2023-04-18T22:38:22.515Z,12.40
2023-04-18T22:40:51.921Z,12.30
2023-04-18T22:43:23.560Z,12.30
2023-04-18T22:45:51.037Z,12.30
2023-04-18T22:48:17.822Z,12.30
2023-04-18T22:50:50.047Z,12.20
2023-04-18T22:53:16.929Z,12.20
2023-04-18T22:55:44.239Z,12.20
2023-04-18T22:58:13.541Z,12.20
2023-04-18T23:00:40.468Z,12.20
2023-04-18T23:03:07.311Z,12.10
2023-04-18T23:05:34.466Z,12.10
2023-04-18T23:08:01.292Z,12.10
2023-04-18T23:10:28.276Z,12.00
2023-04-18T23:12:55.087Z,12.00
2023-04-18T23:15:24.665Z,12.00
2023-04-18T23:17:52.990Z,12.00
2023-04-18T23:20:20.546Z,12.00
2023-04-18T23:22:50.024Z,12.00
2023-04-18T23:25:17.104Z,11.90
2023-04-18T23:27:43.944Z,12.00
2023-04-18T23:30:11.155Z,11.80
2023-04-18T23:32:38.018Z,11.80
2023-04-18T23:35:06.026Z,11.80
2023-04-18T23:37:37.238Z,11.80
2023-04-18T23:40:06.709Z,11.80
2023-04-18T23:42:37.006Z,11.80
2023-04-18T23:45:04.130Z,11.70
2023-04-18T23:47:30.959Z,11.60
2023-04-18T23:49:57.816Z,11.60
2023-04-18T23:52:24.601Z,11.60
2023-04-18T23:54:51.764Z,11.60
2023-04-18T23:57:23.141Z,11.60
2023-04-18T23:59:52.344Z,11.50
